<?xml version="1.0" encoding="UTF-8" standalone="no" ?>
<gpx xmlns="http://www.topografix.com/GPX/1/1" xmlns:xsi="http://www.w3.org/2001/XMLSchema-instance" xsi:schemaLocation="http://www.topografix.com/GPX/1/1 http://www.topografix.com/GPX/1/1/gpx.xsd" version="1.1" creator="VisuGPX - https://www.visugpx.com">
  <metadata>
    <name>Argentina</name>
    <desc><![CDATA[Downloaded from eMap Software Version 2.75]]></desc>
  </metadata>
  <trk>
    <name><![CDATA[Argentina_78]]></name>
    <extensions>
      <line xmlns="http://www.topografix.com/GPX/gpx_style/0/2">
        <color>ff0000</color>
        <opacity>0.78</opacity>
        <width>0.6000</width>
      </line>
    </extensions>
    <trkseg>
      <trkpt lat="44.19514" lon="6.8612">
        <ele>2153.971191</ele>
        <time>2008-08-10T09:27:26Z</time>
      </trkpt>
      <trkpt lat="44.19508" lon="6.86116">
        <ele>2177.042969</ele>
        <time>2008-08-10T09:27:39Z</time>
      </trkpt>
      <trkpt lat="44.19512" lon="6.86111">
        <ele>2178.484863</ele>
        <time>2008-08-10T09:27:53Z</time>
      </trkpt>
      <trkpt lat="44.19514" lon="6.86083">
        <ele>2177.042969</ele>
        <time>2008-08-10T09:28:20Z</time>
      </trkpt>
      <trkpt lat="44.1951" lon="6.86064">
        <ele>2177.042969</ele>
        <time>2008-08-10T09:28:41Z</time>
      </trkpt>
      <trkpt lat="44.19512" lon="6.86055">
        <ele>2180.407471</ele>
        <time>2008-08-10T09:29:06Z</time>
      </trkpt>
      <trkpt lat="44.19512" lon="6.86047">
        <ele>2179.446045</ele>
        <time>2008-08-10T09:29:28Z</time>
      </trkpt>
      <trkpt lat="44.19521" lon="6.86032">
        <ele>2176.081543</ele>
        <time>2008-08-10T09:29:55Z</time>
      </trkpt>
      <trkpt lat="44.19529" lon="6.86017">
        <ele>2178.965332</ele>
        <time>2008-08-10T09:30:54Z</time>
      </trkpt>
      <trkpt lat="44.19549" lon="6.86019">
        <ele>2187.136475</ele>
        <time>2008-08-10T09:31:19Z</time>
      </trkpt>
      <trkpt lat="44.19547" lon="6.86015">
        <ele>2191.462646</ele>
        <time>2008-08-10T09:31:35Z</time>
      </trkpt>
      <trkpt lat="44.19551" lon="6.85993">
        <ele>2193.865967</ele>
        <time>2008-08-10T09:32:15Z</time>
      </trkpt>
      <trkpt lat="44.1956" lon="6.85942">
        <ele>2194.346436</ele>
        <time>2008-08-10T09:33:18Z</time>
      </trkpt>
      <trkpt lat="44.1956" lon="6.85935">
        <ele>2202.036865</ele>
        <time>2008-08-10T09:33:59Z</time>
      </trkpt>
      <trkpt lat="44.19562" lon="6.8591">
        <ele>2204.921143</ele>
        <time>2008-08-10T09:34:40Z</time>
      </trkpt>
      <trkpt lat="44.19575" lon="6.85899">
        <ele>2211.169678</ele>
        <time>2008-08-10T09:35:06Z</time>
      </trkpt>
      <trkpt lat="44.19577" lon="6.8588">
        <ele>2212.130859</ele>
        <time>2008-08-10T09:35:53Z</time>
      </trkpt>
      <trkpt lat="44.1959" lon="6.85873">
        <ele>2220.782959</ele>
        <time>2008-08-10T09:36:14Z</time>
      </trkpt>
      <trkpt lat="44.19609" lon="6.85877">
        <ele>2230.876709</ele>
        <time>2008-08-10T09:37:04Z</time>
      </trkpt>
      <trkpt lat="44.1962" lon="6.85854">
        <ele>2237.125244</ele>
        <time>2008-08-10T09:37:30Z</time>
      </trkpt>
      <trkpt lat="44.19635" lon="6.85834">
        <ele>2243.854492</ele>
        <time>2008-08-10T09:37:59Z</time>
      </trkpt>
      <trkpt lat="44.19648" lon="6.85845">
        <ele>2249.141602</ele>
        <time>2008-08-10T09:38:19Z</time>
      </trkpt>
      <trkpt lat="44.1965" lon="6.85854">
        <ele>2253.467773</ele>
        <time>2008-08-10T09:40:57Z</time>
      </trkpt>
      <trkpt lat="44.1965" lon="6.85854">
        <ele>2253.467773</ele>
        <time>2008-08-10T09:41:34Z</time>
      </trkpt>
    </trkseg>
  </trk>
</gpx>